Time;durP1;ratioP1;P1;durP2;ratioP2;P2;SDS_P1;SDS_P2;PMS_P1;PMS_P2;Temp;Humidity;BMP_temperature;BMP_pressure;BME280_temperature;BME280_humidity;BME280_pressure;Samples;Min_cycle;Max_cycle;Signal;HPM_P1;HPM_P2
2022/12/08 00:01:14;;;;;;;20.40;9.73;;;3.20;84.60;;;;;;5025536;28;20666;-74
2022/12/08 00:03:40;;;;;;;14.40;7.90;;;3.10;85.00;;;;;;5021464;28;20930;-75
2022/12/08 00:11:35;;;;;;;19.03;9.10;;;3.30;84.70;;;;;;5027242;28;20783;-75
2022/12/08 00:14:01;;;;;;;13.37;7.17;;;3.50;84.40;;;;;;5018064;28;20440;-74
2022/12/08 00:16:26;;;;;;;14.07;7.63;;;3.50;83.80;;;;;;5023461;28;20197;-73
2022/12/08 00:18:52;;;;;;;15.90;8.10;;;3.40;83.70;;;;;;5023803;28;20459;-72
2022/12/08 00:21:17;;;;;;;20.07;9.33;;;3.40;83.70;;;;;;5024255;28;20671;-76
2022/12/08 00:23:43;;;;;;;17.47;8.27;;;3.40;83.80;;;;;;5013743;28;20599;-75
2022/12/08 00:26:08;;;;;;;22.67;9.43;;;3.30;83.80;;;;;;5025084;28;20196;-74
2022/12/08 00:28:34;;;;;;;12.17;8.40;;;3.30;84.10;;;;;;5023329;28;20212;-73
2022/12/08 00:31:09;;;;;;;20.60;9.37;;;3.30;84.10;;;;;;5025453;28;20197;-75
2022/12/08 00:33:35;;;;;;;15.90;8.77;;;3.20;84.40;;;;;;5028388;28;20280;-73
2022/12/08 00:36:08;;;;;;;19.50;9.67;;;3.20;84.60;;;;;;5027086;28;20515;-73
2022/12/08 00:38:35;;;;;;;17.63;8.93;;;3.10;84.30;;;;;;5014824;28;21013;-75
2022/12/08 00:41:02;;;;;;;19.40;8.53;;;3.00;84.60;;;;;;5020850;28;20463;-72
2022/12/08 00:43:28;;;;;;;15.93;8.27;;;3.00;84.90;;;;;;5022598;28;20450;-74
2022/12/08 00:45:53;;;;;;;16.93;8.40;;;2.90;84.90;;;;;;5020902;28;20431;-75
2022/12/08 00:48:19;;;;;;;21.93;9.13;;;2.80;85.30;;;;;;5021970;28;20190;-74
2022/12/08 00:50:44;;;;;;;14.10;7.80;;;2.70;85.60;;;;;;5022616;28;20229;-75
2022/12/08 00:53:10;;;;;;;15.10;8.10;;;2.70;86.20;;;;;;5018261;28;20217;-72
2022/12/08 00:55:35;;;;;;;13.67;7.20;;;2.60;86.60;;;;;;5022371;28;20651;-74
2022/12/08 00:58:01;;;;;;;15.03;8.10;;;2.60;86.90;;;;;;5020094;28;20209;-72
2022/12/08 01:00:26;;;;;;;17.63;8.43;;;2.60;87.00;;;;;;5022223;28;20234;-73
2022/12/08 01:02:52;;;;;;;14.40;6.90;;;2.60;86.90;;;;;;5025617;28;20199;-74
2022/12/08 01:05:18;;;;;;;12.73;7.03;;;2.60;86.90;;;;;;5029816;28;20267;-73
2022/12/08 01:07:43;;;;;;;14.50;7.50;;;2.60;86.90;;;;;;5029284;28;20192;-72
2022/12/08 01:10:09;;;;;;;13.10;6.67;;;2.60;86.90;;;;;;5030886;28;20213;-74
2022/12/08 01:12:34;;;;;;;13.13;6.50;;;2.50;86.80;;;;;;5032345;28;20185;-75
2022/12/08 01:15:00;;;;;;;16.30;7.00;;;2.40;86.80;;;;;;5031378;28;20197;-76
2022/12/08 01:17:25;;;;;;;13.93;7.00;;;2.20;86.90;;;;;;5031981;28;20299;-75
2022/12/08 01:19:51;;;;;;;19.33;8.30;;;2.10;87.10;;;;;;5026704;28;20209;-74
2022/12/08 01:22:17;;;;;;;18.57;8.67;;;2.00;87.70;;;;;;5032895;28;20185;-75
2022/12/08 01:24:42;;;;;;;13.83;8.00;;;2.00;88.30;;;;;;5023553;28;20182;-71
2022/12/08 01:27:08;;;;;;;18.07;8.00;;;2.00;88.40;;;;;;5033249;28;20874;-76
2022/12/08 01:29:34;;;;;;;19.97;8.87;;;2.00;88.40;;;;;;5036842;28;20294;-74
2022/12/08 01:31:59;;;;;;;14.60;8.40;;;1.90;88.60;;;;;;5029163;28;20217;-75
2022/12/08 01:34:25;;;;;;;14.50;7.50;;;1.90;88.60;;;;;;5027563;28;20577;-75
2022/12/08 01:36:50;;;;;;;17.93;7.40;;;1.80;88.70;;;;;;5029778;28;20221;-74
2022/12/08 01:39:18;;;;;;;15.20;8.00;;;1.80;88.90;;;;;;5023269;28;20696;-73
2022/12/08 01:41:46;;;;;;;12.10;6.93;;;1.70;89.00;;;;;;5028125;28;20185;-74
2022/12/08 01:44:11;;;;;;;18.67;7.40;;;1.70;89.20;;;;;;5030841;28;20489;-74
2022/12/08 01:46:39;;;;;;;15.00;8.13;;;1.70;89.20;;;;;;5029530;28;20427;-75
2022/12/08 01:49:11;;;;;;;16.20;8.25;;;1.70;89.00;;;;;;5026456;28;20968;-75
2022/12/08 01:52:02;;;;;;;14.68;7.60;;;1.60;88.90;;;;;;5024089;28;20595;-75
2022/12/08 01:54:32;;;;;;;16.60;7.70;;;1.60;89.20;;;;;;5012650;28;20200;-74
2022/12/08 01:57:05;;;;;;;15.57;7.80;;;1.50;89.20;;;;;;5027679;28;20233;-73
2022/12/08 01:59:33;;;;;;;23.90;8.45;;;1.50;89.30;;;;;;5024368;28;20211;-75
2022/12/08 02:01:58;;;;;;;20.15;8.45;;;1.50;89.30;;;;;;5028481;28;20185;-75
2022/12/08 02:04:24;;;;;;;20.63;8.20;;;1.40;89.50;;;;;;5032347;28;20268;-75
2022/12/08 02:06:50;;;;;;;15.03;7.00;;;1.40;89.60;;;;;;5028409;28;20208;-73
2022/12/08 02:09:16;;;;;;;17.77;8.27;;;1.40;89.60;;;;;;5027319;28;20573;-73
2022/12/08 02:11:41;;;;;;;20.00;8.97;;;1.30;89.60;;;;;;5028671;28;20295;-73
2022/12/08 02:14:09;;;;;;;20.53;8.70;;;1.20;89.70;;;;;;5026744;28;20204;-73
2022/12/08 02:16:53;;;;;;;20.60;9.98;;;1.10;90.00;;;;;;5023995;28;20177;-72
2022/12/08 02:19:50;;;;;;;21.83;8.67;;;1.10;90.20;;;;;;5025110;28;20266;-72
2022/12/08 02:22:32;;;;;;;19.45;9.70;;;1.10;90.50;;;;;;5023432;28;20507;-73
2022/12/08 02:25:00;;;;;;;16.40;8.37;;;1.10;90.70;;;;;;5017882;28;20201;-74
2022/12/08 02:27:58;;;;;;;19.80;9.20;;;1.10;90.70;;;;;;5029235;28;20871;-74
2022/12/08 02:30:38;;;;;;;16.27;8.98;;;1.10;90.60;;;;;;5018661;28;20998;-74
2022/12/08 02:33:42;;;;;;;19.20;9.05;;;1.10;90.60;;;;;;5029577;28;20196;-73
2022/12/08 02:36:11;;;;;;;19.50;8.65;;;1.00;90.50;;;;;;4964426;28;20622;-73
2022/12/08 02:38:55;;;;;;;13.95;7.60;;;1.00;90.70;;;;;;5024274;28;20704;-72
2022/12/08 02:41:39;;;;;;;15.93;7.80;;;1.00;90.70;;;;;;5026485;28;20193;-74
2022/12/08 02:44:22;;;;;;;14.88;7.40;;;1.10;90.70;;;;;;5026014;28;20424;-73
2022/12/08 02:46:55;;;;;;;14.13;6.83;;;1.10;90.60;;;;;;5026307;28;20280;-72
2022/12/08 02:49:33;;;;;;;17.13;7.80;;;1.00;90.50;;;;;;5027526;28;20674;-75
2022/12/08 02:52:26;;;;;;;14.40;7.25;;;1.00;90.30;;;;;;5027315;28;21228;-73
2022/12/08 02:55:05;;;;;;;16.52;8.20;;;1.00;90.40;;;;;;5019503;28;20212;-73
2022/12/08 02:57:33;;;;;;;14.15;7.72;;;0.90;90.30;;;;;;5021377;28;20283;-73
2022/12/08 03:00:08;;;;;;;13.25;6.63;;;0.80;90.50;;;;;;5025651;28;20303;-73
2022/12/08 03:02:52;;;;;;;12.82;6.60;;;0.90;90.60;;;;;;5023667;28;20181;-74
2022/12/08 03:05:45;;;;;;;16.05;7.38;;;0.80;90.60;;;;;;5028083;28;20269;-73
2022/12/08 03:08:21;;;;;;;19.67;7.90;;;0.80;90.70;;;;;;5021436;28;20223;-74
2022/12/08 03:11:02;;;;;;;14.90;6.87;;;0.80;90.70;;;;;;5017186;28;20443;-74
2022/12/08 03:13:38;;;;;;;24.73;9.13;;;0.90;90.70;;;;;;5029509;28;20436;-74
2022/12/08 03:16:06;;;;;;;17.48;8.85;;;0.90;90.70;;;;;;5022454;28;20197;-75
2022/12/08 03:18:40;;;;;;;17.40;9.55;;;0.90;90.70;;;;;;5026449;28;20231;-71
2022/12/08 03:21:08;;;;;;;17.90;8.82;;;0.90;90.60;;;;;;5032365;28;20936;-72
2022/12/08 03:23:37;;;;;;;22.10;9.43;;;0.90;90.60;;;;;;5025253;28;20188;-75
2022/12/08 03:26:18;;;;;;;20.88;10.18;;;0.90;90.50;;;;;;5019149;28;20599;-75
2022/12/08 03:28:44;;;;;;;13.95;7.88;;;0.80;90.50;;;;;;5022145;28;20208;-74
2022/12/08 03:31:13;;;;;;;13.98;7.80;;;0.70;90.60;;;;;;5016775;28;20193;-72
2022/12/08 03:33:42;;;;;;;15.45;9.07;;;0.60;90.70;;;;;;5023768;28;20188;-73
2022/12/08 03:36:11;;;;;;;23.50;9.30;;;0.50;90.80;;;;;;5026547;28;20182;-75
2022/12/08 03:38:41;;;;;;;20.60;8.45;;;0.50;91.00;;;;;;5023822;28;20217;-75
2022/12/08 03:41:19;;;;;;;18.15;9.98;;;0.50;91.10;;;;;;5027699;28;20268;-73
2022/12/08 03:43:47;;;;;;;20.75;10.25;;;0.50;91.30;;;;;;5030346;28;20213;-74
2022/12/08 03:46:14;;;;;;;17.17;8.63;;;0.50;91.40;;;;;;5032715;28;20281;-75
2022/12/08 03:48:39;;;;;;;22.75;9.70;;;0.50;91.40;;;;;;5028164;28;20217;-74
2022/12/08 03:51:05;;;;;;;14.33;7.87;;;0.60;91.50;;;;;;5029686;28;20185;-76
2022/12/08 03:53:30;;;;;;;19.60;8.57;;;0.60;91.40;;;;;;5020506;28;20197;-75
2022/12/08 03:55:56;;;;;;;16.13;8.93;;;0.60;91.40;;;;;;5024629;28;20236;-74
2022/12/08 03:58:21;;;;;;;17.37;9.03;;;0.50;91.40;;;;;;5032678;28;20227;-72
2022/12/08 04:00:47;;;;;;;18.30;8.40;;;0.50;91.40;;;;;;5042062;28;20181;-72
2022/12/08 04:03:13;;;;;;;22.60;9.00;;;0.50;91.40;;;;;;5037713;28;20207;-71
2022/12/08 04:05:38;;;;;;;18.70;8.97;;;0.50;91.40;;;;;;5038204;28;20189;-74
2022/12/08 04:08:04;;;;;;;18.67;9.00;;;0.60;91.50;;;;;;5040584;28;20201;-74
2022/12/08 04:10:30;;;;;;;17.10;8.80;;;0.60;91.40;;;;;;5046182;28;20181;-72
2022/12/08 04:12:55;;;;;;;18.27;9.37;;;0.50;91.30;;;;;;5020558;28;20287;-73
2022/12/08 04:15:21;;;;;;;20.13;9.50;;;0.50;91.40;;;;;;5017192;28;20193;-76
2022/12/08 04:17:46;;;;;;;25.70;8.90;;;0.50;91.40;;;;;;5021153;28;20205;-74
2022/12/08 04:20:12;;;;;;;18.07;8.73;;;0.50;91.40;;;;;;5023289;28;20213;-75
2022/12/08 04:22:37;;;;;;;19.97;9.57;;;0.50;91.50;;;;;;5021015;28;20572;-74
2022/12/08 04:25:03;;;;;;;20.27;8.40;;;0.50;91.50;;;;;;5026229;28;20186;-74
2022/12/08 04:27:29;;;;;;;19.73;9.20;;;0.50;91.40;;;;;;5020714;28;20186;-73
2022/12/08 04:29:54;;;;;;;21.10;10.40;;;0.50;91.40;;;;;;5021555;28;20561;-75
2022/12/08 04:32:20;;;;;;;21.07;8.93;;;0.50;91.40;;;;;;5012942;28;20683;-75
2022/12/08 04:34:46;;;;;;;13.03;7.63;;;0.50;91.40;;;;;;5024039;28;20199;-72
2022/12/08 04:37:11;;;;;;;16.60;9.03;;;0.50;91.30;;;;;;5014370;28;20329;-75
2022/12/08 04:39:37;;;;;;;15.30;8.53;;;0.50;91.30;;;;;;5022459;28;20211;-73
2022/12/08 04:42:02;;;;;;;16.33;8.60;;;0.40;91.20;;;;;;5018779;28;20196;-72
2022/12/08 04:44:28;;;;;;;17.57;9.50;;;0.40;91.30;;;;;;5027284;28;20184;-74
2022/12/08 04:46:53;;;;;;;20.67;9.03;;;0.40;91.40;;;;;;5024051;28;20219;-73
2022/12/08 04:49:19;;;;;;;22.50;9.40;;;0.40;91.30;;;;;;5019755;28;20296;-75
2022/12/08 04:51:44;;;;;;;18.80;9.47;;;0.30;91.40;;;;;;5018187;28;20209;-72
2022/12/08 04:54:10;;;;;;;21.93;8.50;;;0.30;91.40;;;;;;5023720;28;20197;-75
2022/12/08 04:56:36;;;;;;;16.10;8.87;;;0.30;91.40;;;;;;5019061;28;20208;-73
2022/12/08 04:59:02;;;;;;;20.40;9.93;;;0.40;91.30;;;;;;5020092;28;20212;-73
2022/12/08 05:01:27;;;;;;;20.42;9.38;;;0.30;91.30;;;;;;5022213;28;20211;-74
2022/12/08 05:03:53;;;;;;;18.43;8.50;;;0.20;91.20;;;;;;5021381;28;20190;-75
2022/12/08 05:06:18;;;;;;;21.80;9.00;;;0.20;91.40;;;;;;5025173;28;20213;-73
2022/12/08 05:08:44;;;;;;;20.20;10.00;;;0.20;91.40;;;;;;5023562;28;20350;-73
2022/12/08 05:11:11;;;;;;;21.37;10.20;;;0.20;91.40;;;;;;5021407;28;20738;-73
2022/12/08 05:13:37;;;;;;;21.20;10.23;;;0.20;91.40;;;;;;5022208;28;20200;-74
2022/12/08 05:16:11;;;;;;;18.27;9.00;;;0.10;91.40;;;;;;5024708;28;20185;-74
2022/12/08 05:18:38;;;;;;;14.93;8.18;;;0.10;91.60;;;;;;5019460;28;20239;-72
2022/12/08 05:21:04;;;;;;;16.98;8.10;;;0.10;91.70;;;;;;5023151;28;20189;-73
2022/12/08 05:23:30;;;;;;;15.32;7.47;;;0.10;91.80;;;;;;5015658;28;20735;-74
2022/12/08 05:25:55;;;;;;;16.90;8.20;;;0.10;91.80;;;;;;5022533;28;20330;-73
2022/12/08 05:28:21;;;;;;;19.03;9.03;;;0.20;91.90;;;;;;5022065;28;20200;-72
2022/12/08 05:30:47;;;;;;;19.00;8.47;;;0.10;91.80;;;;;;5018500;28;20244;-73
2022/12/08 05:33:12;;;;;;;20.27;10.00;;;0.10;91.90;;;;;;5020410;28;20272;-74
2022/12/08 05:35:38;;;;;;;14.70;7.83;;;0.10;91.90;;;;;;5024239;28;20192;-73
2022/12/08 05:38:04;;;;;;;15.80;8.03;;;0.20;91.90;;;;;;5016831;28;20213;-73
2022/12/08 05:40:30;;;;;;;14.95;7.82;;;0.20;91.70;;;;;;5017682;28;20200;-73
2022/12/08 05:42:55;;;;;;;23.70;8.70;;;0.20;91.50;;;;;;5018312;28;20182;-73
2022/12/08 05:45:21;;;;;;;17.00;8.37;;;0.20;91.40;;;;;;5021572;28;20232;-73
2022/12/08 05:47:47;;;;;;;18.17;9.90;;;0.20;91.20;;;;;;5020691;28;20242;-74
2022/12/08 05:50:12;;;;;;;22.83;10.40;;;0.10;91.20;;;;;;5023932;28;20244;-72
2022/12/08 05:52:38;;;;;;;18.73;9.40;;;0.10;91.20;;;;;;5024472;28;20266;-72
2022/12/08 05:55:04;;;;;;;23.83;10.27;;;0.00;91.40;;;;;;5027685;28;20280;-72
2022/12/08 05:57:29;;;;;;;14.53;7.60;;;0.00;91.40;;;;;;5026141;28;20205;-72
2022/12/08 05:59:55;;;;;;;22.07;10.10;;;0.10;91.60;;;;;;5018437;28;20209;-73
2022/12/08 06:02:21;;;;;;;19.17;8.45;;;0.10;91.60;;;;;;5024420;28;20184;-71
2022/12/08 06:04:47;;;;;;;18.37;8.23;;;0.10;91.60;;;;;;5028010;28;20640;-71
2022/12/08 06:07:12;;;;;;;19.87;9.00;;;0.20;91.60;;;;;;5023892;28;20663;-72
2022/12/08 06:09:38;;;;;;;17.97;8.93;;;0.10;91.40;;;;;;5023975;28;20693;-72
2022/12/08 06:12:04;;;;;;;15.83;8.50;;;0.10;91.40;;;;;;5023967;28;20196;-73
2022/12/08 06:14:29;;;;;;;24.43;8.70;;;0.10;91.40;;;;;;5024568;28;20202;-71
2022/12/08 06:16:55;;;;;;;19.03;8.20;;;0.10;91.40;;;;;;5022139;28;20286;-73
2022/12/08 06:19:20;;;;;;;15.20;8.17;;;0.10;91.40;;;;;;5021393;28;20209;-73
2022/12/08 06:21:46;;;;;;;20.40;8.13;;;0.10;91.40;;;;;;5019586;28;20264;-73
2022/12/08 06:24:11;;;;;;;17.47;9.30;;;0.10;91.50;;;;;;5025711;28;20256;-72
2022/12/08 06:26:39;;;;;;;18.20;9.00;;;0.10;91.40;;;;;;5023972;28;20230;-73
2022/12/08 06:29:04;;;;;;;18.33;7.70;;;0.10;91.40;;;;;;5024846;28;20588;-72
2022/12/08 06:31:30;;;;;;;16.67;8.00;;;0.10;91.40;;;;;;5022225;28;20182;-73
2022/12/08 06:33:55;;;;;;;18.83;9.07;;;0.10;91.40;;;;;;5022181;28;20277;-72
2022/12/08 06:36:24;;;;;;;18.50;7.77;;;0.10;91.50;;;;;;5028802;28;20181;-73
2022/12/08 06:38:50;;;;;;;17.40;8.68;;;0.10;91.40;;;;;;5026997;28;20711;-73
2022/12/08 06:41:16;;;;;;;19.07;8.30;;;0.20;91.30;;;;;;5026321;28;20193;-73
2022/12/08 06:43:43;;;;;;;19.33;8.45;;;0.20;91.20;;;;;;5017789;28;20226;-72
2022/12/08 06:46:12;;;;;;;24.83;8.20;;;0.20;91.20;;;;;;5026255;28;20213;-73
2022/12/08 06:48:38;;;;;;;13.23;7.38;;;0.20;91.20;;;;;;5024477;28;20922;-72
2022/12/08 06:51:08;;;;;;;19.20;7.23;;;0.20;91.30;;;;;;5025063;28;20182;-73
2022/12/08 06:53:34;;;;;;;18.08;7.70;;;0.10;91.30;;;;;;5024033;28;20196;-73
2022/12/08 06:56:00;;;;;;;15.93;8.50;;;0.10;91.30;;;;;;5030462;28;20460;-72
2022/12/08 06:58:25;;;;;;;14.10;7.30;;;0.10;91.40;;;;;;5025355;28;20279;-73
2022/12/08 07:00:51;;;;;;;15.63;7.70;;;0.10;91.50;;;;;;5039048;28;20200;-72
2022/12/08 07:03:16;;;;;;;18.97;7.93;;;0.10;91.60;;;;;;5031946;28;20196;-72
2022/12/08 07:05:42;;;;;;;14.27;7.10;;;0.20;91.70;;;;;;5029104;28;20257;-73
2022/12/08 07:08:08;;;;;;;19.10;9.40;;;0.20;91.30;;;;;;5024609;28;20215;-74
2022/12/08 07:10:34;;;;;;;18.52;8.30;;;0.20;91.10;;;;;;5024558;28;20194;-72
2022/12/08 07:13:00;;;;;;;18.20;9.05;;;0.20;90.80;;;;;;5026012;28;20197;-73
2022/12/08 07:15:25;;;;;;;18.00;8.17;;;0.10;90.70;;;;;;5024230;28;20196;-73
2022/12/08 07:17:51;;;;;;;15.17;8.20;;;0.10;90.70;;;;;;5028482;28;20228;-74
2022/12/08 07:20:17;;;;;;;18.43;8.80;;;0.00;90.80;;;;;;5022302;28;20205;-72
2022/12/08 07:22:50;;;;;;;18.20;7.37;;;0.00;90.80;;;;;;5022974;28;20328;-73
2022/12/08 07:25:16;;;;;;;19.95;8.40;;;0.10;90.70;;;;;;5026947;28;20182;-73
2022/12/08 07:27:42;;;;;;;12.98;7.68;;;0.10;90.70;;;;;;5031137;28;20250;-72
2022/12/08 07:30:08;;;;;;;17.37;8.17;;;0.10;90.70;;;;;;5032703;28;20704;-74
2022/12/08 07:32:33;;;;;;;16.20;8.50;;;0.10;90.80;;;;;;5034157;28;20208;-73
2022/12/08 07:34:59;;;;;;;16.60;7.90;;;0.10;90.80;;;;;;5033988;28;20453;-74
2022/12/08 07:37:24;;;;;;;19.10;9.50;;;0.10;90.90;;;;;;5033731;28;20217;-74
2022/12/08 07:39:50;;;;;;;22.50;9.60;;;0.10;91.00;;;;;;5028463;28;20209;-73
2022/12/08 07:42:15;;;;;;;18.80;9.67;;;0.20;91.00;;;;;;5034266;28;20265;-73
2022/12/08 07:44:41;;;;;;;15.63;8.23;;;0.20;91.00;;;;;;5031791;28;20548;-73
2022/12/08 07:47:06;;;;;;;19.10;9.23;;;0.10;91.10;;;;;;5032654;28;20185;-74
2022/12/08 07:49:32;;;;;;;16.73;8.00;;;0.10;91.10;;;;;;5034359;28;20255;-72
2022/12/08 07:51:58;;;;;;;21.53;8.90;;;0.20;91.30;;;;;;5035898;28;20201;-75
2022/12/08 07:54:23;;;;;;;21.83;8.40;;;0.30;91.30;;;;;;5037631;28;20212;-73
2022/12/08 07:56:49;;;;;;;16.50;8.40;;;0.30;91.10;;;;;;5027480;28;20189;-73
2022/12/08 07:59:14;;;;;;;18.93;9.30;;;0.30;90.90;;;;;;5031031;28;20558;-72
2022/12/08 08:01:40;;;;;;;19.37;8.63;;;0.30;90.80;;;;;;5033430;28;20232;-74
2022/12/08 08:04:05;;;;;;;17.57;8.80;;;0.30;90.80;;;;;;5025917;28;20258;-73
2022/12/08 08:06:33;;;;;;;19.97;9.50;;;0.30;90.90;;;;;;5027421;28;20189;-73
2022/12/08 08:08:59;;;;;;;18.83;8.70;;;0.40;90.90;;;;;;5023811;28;20275;-73
2022/12/08 08:11:25;;;;;;;14.15;7.63;;;0.30;90.50;;;;;;5025200;28;20197;-73
2022/12/08 08:13:51;;;;;;;18.37;8.67;;;0.30;90.40;;;;;;5025962;28;20185;-73
2022/12/08 08:16:18;;;;;;;21.80;8.93;;;0.30;90.30;;;;;;5020546;28;20190;-73
2022/12/08 08:18:49;;;;;;;20.33;7.50;;;0.40;90.30;;;;;;5018628;28;20240;-72
2022/12/08 08:21:15;;;;;;;20.17;8.30;;;0.40;90.20;;;;;;5023051;28;20277;-73
2022/12/08 08:23:41;;;;;;;17.77;7.93;;;0.40;90.20;;;;;;5025573;28;20571;-74
2022/12/08 08:26:06;;;;;;;17.27;8.90;;;0.40;90.20;;;;;;5021954;28;20178;-73
2022/12/08 08:28:32;;;;;;;18.40;8.17;;;0.40;90.20;;;;;;5025787;28;20245;-73
2022/12/08 08:30:59;;;;;;;17.70;8.10;;;0.50;90.20;;;;;;5032096;28;20194;-73
2022/12/08 08:33:26;;;;;;;23.75;9.02;;;0.60;90.00;;;;;;5033861;28;20181;-73
2022/12/08 08:35:52;;;;;;;15.75;8.05;;;0.50;90.10;;;;;;5030775;28;20181;-72
2022/12/08 08:38:18;;;;;;;22.10;8.38;;;0.50;90.10;;;;;;5037490;28;20205;-73
2022/12/08 08:40:44;;;;;;;16.83;7.80;;;0.50;90.20;;;;;;5029055;28;20190;-73
2022/12/08 08:43:27;;;;;;;19.40;8.93;;;0.60;90.40;;;;;;5033754;28;20189;-73
2022/12/08 08:45:59;;;;;;;24.02;9.02;;;0.70;90.40;;;;;;5026865;28;20362;-74
2022/12/08 08:48:26;;;;;;;21.63;8.77;;;0.70;90.20;;;;;;5028864;28;20263;-72
2022/12/08 08:50:52;;;;;;;23.88;8.70;;;0.90;90.20;;;;;;5021293;28;20177;-72
2022/12/08 08:53:18;;;;;;;19.03;8.70;;;0.90;90.00;;;;;;5027396;28;20205;-72
2022/12/08 08:55:44;;;;;;;19.05;8.65;;;0.80;89.70;;;;;;5019902;28;20487;-74
2022/12/08 08:58:10;;;;;;;15.43;8.50;;;0.80;89.70;;;;;;5023560;28;20221;-74
2022/12/08 09:00:35;;;;;;;21.20;10.30;;;0.90;90.00;;;;;;5017279;28;20569;-74
2022/12/08 09:03:01;;;;;;;16.60;8.57;;;0.80;90.00;;;;;;5023956;28;20273;-73
2022/12/08 09:05:26;;;;;;;16.97;8.87;;;0.80;90.00;;;;;;5015927;28;20181;-73
2022/12/08 09:07:52;;;;;;;19.60;9.77;;;0.90;90.10;;;;;;5020614;28;20288;-73
2022/12/08 09:10:17;;;;;;;18.23;8.83;;;1.10;90.00;;;;;;5025506;28;20214;-73
2022/12/08 09:12:43;;;;;;;18.83;8.10;;;1.20;89.50;;;;;;5019672;28;20182;-73
2022/12/08 09:15:09;;;;;;;20.63;9.30;;;1.30;89.20;;;;;;5020173;28;20255;-73
2022/12/08 09:17:34;;;;;;;15.73;8.27;;;1.40;88.30;;;;;;5025677;28;20245;-73
2022/12/08 09:20:00;;;;;;;17.17;8.90;;;1.50;87.60;;;;;;5024004;28;20217;-73
2022/12/08 09:22:26;;;;;;;18.93;8.40;;;1.50;87.10;;;;;;5024537;28;20181;-73
2022/12/08 09:24:52;;;;;;;17.53;8.67;;;1.50;86.90;;;;;;5031427;28;20851;-73
2022/12/08 09:27:17;;;;;;;15.47;7.73;;;1.50;86.80;;;;;;5027627;28;20197;-72
2022/12/08 09:29:43;;;;;;;17.93;9.90;;;1.50;86.90;;;;;;5027044;28;20456;-74
2022/12/08 09:32:09;;;;;;;17.33;7.83;;;1.50;86.80;;;;;;5033695;28;20196;-72
2022/12/08 09:34:34;;;;;;;12.43;7.47;;;1.60;86.50;;;;;;5025576;28;20236;-73
2022/12/08 09:37:00;;;;;;;12.67;7.43;;;1.70;85.70;;;;;;5021295;28;20464;-73
2022/12/08 09:39:26;;;;;;;17.80;7.80;;;1.70;85.30;;;;;;5030270;28;20584;-73
2022/12/08 09:42:00;;;;;;;19.43;9.03;;;1.80;85.30;;;;;;5030031;28;20181;-74
2022/12/08 09:44:35;;;;;;;17.20;8.23;;;1.80;84.70;;;;;;5028389;28;20203;-73
2022/12/08 09:47:03;;;;;;;17.30;8.02;;;1.90;84.60;;;;;;5020596;28;20579;-72
2022/12/08 09:49:43;;;;;;;15.40;7.80;;;2.00;84.30;;;;;;5026026;28;20213;-73
2022/12/08 09:52:20;;;;;;;13.73;7.68;;;2.00;83.80;;;;;;5030573;28;20262;-73
2022/12/08 09:54:46;;;;;;;14.10;6.73;;;2.00;83.70;;;;;;5028718;28;20221;-73
2022/12/08 09:57:18;;;;;;;16.73;8.03;;;2.10;83.60;;;;;;5030271;28;21110;-74
2022/12/08 09:59:50;;;;;;;17.27;7.85;;;2.10;83.30;;;;;;5025973;28;20228;-73
2022/12/08 10:02:22;;;;;;;13.40;7.45;;;2.10;83.00;;;;;;5026015;28;20181;-72
2022/12/08 10:04:47;;;;;;;13.47;7.67;;;2.10;82.80;;;;;;5028239;28;20182;-74
2022/12/08 10:07:20;;;;;;;13.80;7.47;;;2.20;82.80;;;;;;5028416;28;20439;-73
2022/12/08 10:10:16;;;;;;;16.50;7.75;;;2.20;82.70;;;;;;5027812;28;20692;-74
2022/12/08 10:12:47;;;;;;;14.20;7.43;;;2.20;82.70;;;;;;5024631;28;20189;-74
2022/12/08 10:15:40;;;;;;;14.85;7.50;;;2.30;82.20;;;;;;5035014;28;20438;-74
2022/12/08 10:18:19;;;;;;;13.75;6.60;;;2.30;82.10;;;;;;5030840;28;20208;-74
2022/12/08 10:20:47;;;;;;;15.20;7.50;;;2.30;82.10;;;;;;5034395;28;20189;-74
2022/12/08 10:23:37;;;;;;;14.63;7.10;;;2.30;82.10;;;;;;5029817;28;20197;-73
2022/12/08 10:26:10;;;;;;;15.27;7.10;;;2.40;81.90;;;;;;5037254;28;20192;-73
2022/12/08 10:28:36;;;;;;;11.90;6.40;;;2.50;81.70;;;;;;5027388;28;20252;-74
2022/12/08 10:31:01;;;;;;;14.10;6.97;;;2.60;81.20;;;;;;5027135;28;21273;-74
2022/12/08 10:33:28;;;;;;;11.63;6.07;;;2.80;80.80;;;;;;5024444;28;20192;-75
2022/12/08 10:35:57;;;;;;;15.47;6.10;;;3.00;80.30;;;;;;5024033;28;20193;-74
2022/12/08 10:38:29;;;;;;;13.97;6.87;;;3.20;79.70;;;;;;5033046;28;20748;-72
2022/12/08 10:41:12;;;;;;;10.97;6.67;;;3.40;79.00;;;;;;5041015;28;20425;-74
2022/12/08 10:43:43;;;;;;;10.90;7.13;;;3.60;78.30;;;;;;5043813;28;20532;-74
2022/12/08 10:46:21;;;;;;;10.53;5.70;;;4.00;77.80;;;;;;5025900;28;20428;-74
2022/12/08 10:48:50;;;;;;;14.40;6.80;;;4.20;76.40;;;;;;5025208;28;20455;-72
2022/12/08 10:51:32;;;;;;;10.67;6.17;;;4.40;75.10;;;;;;5026724;28;20428;-74
2022/12/08 10:53:58;;;;;;;10.50;6.47;;;4.60;73.90;;;;;;5019900;28;20528;-71
2022/12/08 10:56:29;;;;;;;10.10;5.70;;;4.80;73.30;;;;;;5023822;28;20435;-73
2022/12/08 10:59:24;;;;;;;9.47;5.50;;;4.50;72.70;;;;;;5025144;28;20209;-72
2022/12/08 11:01:52;;;;;;;8.97;5.50;;;4.50;73.50;;;;;;4959809;28;20463;-74
2022/12/08 11:04:33;;;;;;;12.90;5.90;;;4.50;73.50;;;;;;4974963;28;20424;-75
2022/12/08 11:06:59;;;;;;;9.73;6.00;;;4.60;73.50;;;;;;4967857;28;20453;-72
2022/12/08 11:09:30;;;;;;;11.13;6.30;;;4.70;73.20;;;;;;4968817;28;21078;-73
2022/12/08 11:12:14;;;;;;;14.70;6.43;;;4.80;73.20;;;;;;4971904;28;20271;-73
2022/12/08 11:14:42;;;;;;;12.40;6.10;;;4.80;73.20;;;;;;4971985;28;20433;-72
2022/12/08 11:17:09;;;;;;;11.57;6.37;;;4.90;72.60;;;;;;4976326;28;20469;-74
2022/12/08 11:19:53;;;;;;;11.87;6.30;;;5.00;72.40;;;;;;4970801;28;20466;-73
2022/12/08 11:22:36;;;;;;;9.70;5.50;;;4.80;73.00;;;;;;4976165;28;20442;-72
2022/12/08 11:25:10;;;;;;;13.07;5.90;;;4.70;73.60;;;;;;4953889;28;20569;-73
2022/12/08 11:27:47;;;;;;;10.43;5.50;;;4.70;73.60;;;;;;4975765;28;20429;-73
2022/12/08 11:30:15;;;;;;;10.27;6.20;;;4.70;73.70;;;;;;4953467;28;20612;-74
2022/12/08 11:32:43;;;;;;;9.73;5.50;;;4.70;73.70;;;;;;4971345;28;20442;-72
2022/12/08 11:35:34;;;;;;;8.97;5.43;;;4.60;73.70;;;;;;4954435;28;20435;-71
2022/12/08 11:38:13;;;;;;;12.00;6.53;;;4.60;73.70;;;;;;4989790;28;20475;-74
2022/12/08 11:40:41;;;;;;;9.07;5.40;;;4.50;73.60;;;;;;5031572;28;20438;-73
2022/12/08 11:43:34;;;;;;;9.97;5.93;;;4.60;73.90;;;;;;5024415;28;20416;-72
2022/12/08 11:46:03;;;;;;;13.53;6.60;;;4.70;73.60;;;;;;5025892;28;20428;-73
2022/12/08 11:48:43;;;;;;;9.40;5.03;;;4.70;73.70;;;;;;5025338;28;20436;-72
2022/12/08 11:51:23;;;;;;;8.63;5.40;;;4.80;73.30;;;;;;5024055;28;20992;-72
2022/12/08 11:53:51;;;;;;;10.13;5.40;;;4.80;72.70;;;;;;5015594;28;20425;-72
2022/12/08 11:56:44;;;;;;;8.13;5.10;;;4.90;72.40;;;;;;5029176;28;20416;-75
2022/12/08 11:59:20;;;;;;;7.57;4.70;;;4.80;72.40;;;;;;5016899;28;20959;-74
2022/12/08 12:01:46;;;;;;;9.13;5.23;;;4.90;72.00;;;;;;5023120;28;20950;-74
2022/12/08 12:04:35;;;;;;;8.90;5.10;;;4.90;72.60;;;;;;5022338;28;20440;-74
2022/12/08 12:07:20;;;;;;;10.30;5.60;;;4.80;72.90;;;;;;5007762;28;20205;-74
2022/12/08 12:10:04;;;;;;;10.43;4.90;;;4.90;72.90;;;;;;5035169;28;20456;-73
2022/12/08 12:12:59;;;;;;;9.50;5.37;;;4.90;73.20;;;;;;5040385;28;20924;-74
2022/12/08 12:15:50;;;;;;;8.17;4.77;;;4.90;72.90;;;;;;5010043;28;20493;-74
2022/12/08 12:18:44;;;;;;;9.33;5.17;;;4.80;73.00;;;;;;5029224;28;20503;-72
2022/12/08 12:21:21;;;;;;;7.70;4.90;;;4.80;73.00;;;;;;5031942;28;20924;-72
2022/12/08 12:23:58;;;;;;;7.60;4.63;;;5.00;73.20;;;;;;5037735;28;20450;-72
2022/12/08 12:26:26;;;;;;;6.77;4.20;;;5.20;72.40;;;;;;5030717;28;20505;-71
2022/12/08 12:29:14;;;;;;;10.57;4.80;;;5.20;71.60;;;;;;5026685;28;20463;-72
2022/12/08 12:31:46;;;;;;;14.90;5.23;;;5.10;71.70;;;;;;5026743;28;20424;-70
2022/12/08 12:34:17;;;;;;;16.40;5.53;;;5.00;71.70;;;;;;5030275;28;20435;-71
2022/12/08 12:36:50;;;;;;;7.50;4.80;;;4.90;71.70;;;;;;5019604;28;20424;-73
2022/12/08 12:39:19;;;;;;;8.60;4.87;;;4.90;71.70;;;;;;5028014;28;20455;-73
2022/12/08 12:41:47;;;;;;;7.53;4.67;;;4.90;71.70;;;;;;5025945;28;20735;-73
2022/12/08 12:44:12;;;;;;;8.53;4.73;;;4.80;71.80;;;;;;5029337;28;20415;-73
2022/12/08 12:46:54;;;;;;;13.20;5.50;;;4.80;72.00;;;;;;5032171;28;20780;-74
2022/12/08 12:49:38;;;;;;;11.10;4.93;;;4.90;72.00;;;;;;5024192;28;20244;-72
2022/12/08 12:52:32;;;;;;;7.90;4.70;;;4.90;71.30;;;;;;5024227;28;20539;-73
2022/12/08 12:54:57;;;;;;;7.17;4.40;;;5.00;71.60;;;;;;5009822;28;20495;-73
2022/12/08 12:57:32;;;;;;;7.27;4.00;;;5.00;71.70;;;;;;5022814;28;20464;-73
2022/12/08 13:00:01;;;;;;;8.10;4.30;;;5.00;71.30;;;;;;5022344;28;20702;-74
2022/12/08 13:02:43;;;;;;;11.60;5.00;;;4.80;71.70;;;;;;5025891;28;20420;-74
2022/12/08 13:05:25;;;;;;;7.73;4.80;;;5.00;71.60;;;;;;5027865;28;20408;-73
2022/12/08 13:07:53;;;;;;;11.40;4.60;;;5.10;71.30;;;;;;5026523;28;20417;-73